createdAt,value
2023-01-29T00:02:15.231Z,98.60
2023-01-29T00:04:42.230Z,98.60
2023-01-29T00:07:09.270Z,98.50
2023-01-29T00:09:36.242Z,98.50
2023-01-29T00:12:03.544Z,98.40
2023-01-29T00:14:30.606Z,98.40
2023-01-29T00:16:57.684Z,98.40
2023-01-29T00:19:24.742Z,98.20
2023-01-29T00:21:51.751Z,98.30
2023-01-29T00:24:20.527Z,98.20
2023-01-29T00:26:50.125Z,98.30
2023-01-29T00:29:17.985Z,98.30
2023-01-29T00:31:45.894Z,98.20
2023-01-29T00:34:13.408Z,98.20
2023-01-29T00:36:40.675Z,98.20
2023-01-29T00:39:11.051Z,98.20
2023-01-29T00:41:59.988Z,98.20
2023-01-29T00:44:45.883Z,98.10
2023-01-29T00:47:31.010Z,98.20
2023-01-29T00:49:58.343Z,98.20
2023-01-29T00:52:28.998Z,98.30
2023-01-29T00:55:01.456Z,98.30
2023-01-29T00:57:30.379Z,98.30
2023-01-29T00:59:57.533Z,98.20
2023-01-29T01:02:43.445Z,98.30
2023-01-29T01:05:18.196Z,98.30
2023-01-29T01:07:50.775Z,98.30
2023-01-29T01:10:22.045Z,98.40
2023-01-29T01:13:00.785Z,98.40
2023-01-29T01:15:30.799Z,98.50
2023-01-29T01:18:00.371Z,98.80
2023-01-29T01:20:30.198Z,98.80
2023-01-29T01:22:57.577Z,98.80
2023-01-29T01:25:25.992Z,98.70
2023-01-29T01:27:57.536Z,98.60
2023-01-29T01:30:25.688Z,98.70
2023-01-29T01:32:53.140Z,98.50
2023-01-29T01:35:20.318Z,98.60
2023-01-29T01:37:47.363Z,98.60
2023-01-29T01:40:20.041Z,98.50
2023-01-29T01:42:52.815Z,98.50
2023-01-29T01:45:35.393Z,98.60
2023-01-29T01:48:18.888Z,98.60
2023-01-29T01:50:53.281Z,98.60
2023-01-29T01:53:29.456Z,98.60
2023-01-29T01:56:01.535Z,98.60
2023-01-29T01:58:35.446Z,98.60
2023-01-29T02:01:08.399Z,98.50
2023-01-29T02:04:00.380Z,98.40
2023-01-29T02:06:46.174Z,98.40
2023-01-29T02:09:38.899Z,98.40
2023-01-29T02:12:12.444Z,98.40
2023-01-29T02:14:41.448Z,98.40
2023-01-29T02:17:18.369Z,98.30
2023-01-29T02:20:09.260Z,98.50
2023-01-29T02:22:59.362Z,98.80
2023-01-29T02:26:00.224Z,99.10
2023-01-29T02:28:41.035Z,99.10
2023-01-29T02:31:19.384Z,99.00
2023-01-29T02:34:11.980Z,99.00
2023-01-29T02:36:51.783Z,99.00
2023-01-29T02:39:29.320Z,99.00
2023-01-29T02:42:11.809Z,98.80
2023-01-29T02:45:05.820Z,98.70
2023-01-29T02:48:12.570Z,98.70
2023-01-29T02:50:47.884Z,98.60
2023-01-29T02:53:37.832Z,98.50
2023-01-29T02:56:16.293Z,98.50
2023-01-29T02:58:48.405Z,98.50
2023-01-29T03:01:34.796Z,98.40
2023-01-29T03:04:11.121Z,98.40
2023-01-29T03:06:45.232Z,98.40
2023-01-29T03:09:22.763Z,98.40
2023-01-29T03:11:54.715Z,98.40
2023-01-29T03:14:55.204Z,98.40
2023-01-29T03:17:26.778Z,98.40
2023-01-29T03:19:54.408Z,98.30
2023-01-29T03:22:23.424Z,98.40
2023-01-29T03:25:15.542Z,98.40
2023-01-29T03:28:04.169Z,98.60
2023-01-29T03:30:53.886Z,98.70
2023-01-29T03:33:24.131Z,98.70
2023-01-29T03:35:59.346Z,98.60
2023-01-29T03:38:29.778Z,98.60
2023-01-29T03:41:05.196Z,98.50
2023-01-29T03:43:47.288Z,98.50
2023-01-29T03:46:29.766Z,98.60
2023-01-29T03:48:59.767Z,98.70
2023-01-29T03:51:41.190Z,98.80
2023-01-29T03:54:26.533Z,98.80
2023-01-29T03:56:59.316Z,98.90
2023-01-29T03:59:35.473Z,98.90
2023-01-29T04:02:08.591Z,99.00
2023-01-29T04:04:38.117Z,99.30
2023-01-29T04:07:14.068Z,99.50
2023-01-29T04:09:50.040Z,99.40
2023-01-29T04:12:21.525Z,99.40
2023-01-29T04:14:50.410Z,99.60
2023-01-29T04:17:25.509Z,99.40
2023-01-29T04:19:54.108Z,99.30
2023-01-29T04:22:26.252Z,99.30
2023-01-29T04:24:53.644Z,99.30
2023-01-29T04:27:35.646Z,99.30
2023-01-29T04:30:24.019Z,99.30
2023-01-29T04:33:16.869Z,99.10
2023-01-29T04:36:08.831Z,99.20
2023-01-29T04:38:55.897Z,99.30
2023-01-29T04:41:49.030Z,99.90
2023-01-29T04:44:29.437Z,99.60
2023-01-29T04:47:19.725Z,99.50
2023-01-29T04:50:01.585Z,99.30
2023-01-29T04:52:37.836Z,99.20
2023-01-29T04:55:25.373Z,99.10
2023-01-29T04:58:20.178Z,99.00
2023-01-29T05:00:50.293Z,99.20
2023-01-29T05:03:17.662Z,99.30
2023-01-29T05:05:48.199Z,99.10
2023-01-29T05:08:20.557Z,99.20
2023-01-29T05:10:50.331Z,99.40
2023-01-29T05:13:19.759Z,99.20
2023-01-29T05:15:55.018Z,99.20
2023-01-29T05:18:22.245Z,99.30
2023-01-29T05:20:50.204Z,99.30
2023-01-29T05:23:22.174Z,99.20
2023-01-29T05:25:51.667Z,99.20
2023-01-29T05:28:19.222Z,99.50
2023-01-29T05:30:49.330Z,98.90
2023-01-29T05:33:29.209Z,99.20
2023-01-29T05:35:58.324Z,99.20
2023-01-29T05:38:25.884Z,99.10
2023-01-29T05:40:52.919Z,99.10
2023-01-29T05:43:21.040Z,99.00
2023-01-29T05:46:01.334Z,99.00
2023-01-29T05:48:29.821Z,99.00
2023-01-29T05:51:06.563Z,99.30
2023-01-29T05:53:34.119Z,99.00
2023-01-29T05:56:02.472Z,98.90
2023-01-29T05:58:31.992Z,98.90
2023-01-29T06:01:07.561Z,98.90
2023-01-29T06:03:34.589Z,99.00
2023-01-29T06:06:02.719Z,98.70
2023-01-29T06:08:29.841Z,99.20
2023-01-29T06:10:56.916Z,98.90
2023-01-29T06:13:24.048Z,98.90
2023-01-29T06:15:51.239Z,98.80
2023-01-29T06:18:18.529Z,99.20
2023-01-29T06:20:45.511Z,99.00
2023-01-29T06:23:12.582Z,98.60
2023-01-29T06:25:39.611Z,98.70
2023-01-29T06:28:06.720Z,98.90
2023-01-29T06:30:33.831Z,98.70
2023-01-29T06:33:03.962Z,98.70
2023-01-29T06:35:31.107Z,98.80
2023-01-29T06:37:58.201Z,98.70
2023-01-29T06:40:25.220Z,98.90
2023-01-29T06:42:52.273Z,98.80
2023-01-29T06:45:19.401Z,98.90
2023-01-29T06:47:46.436Z,99.10
2023-01-29T06:50:13.647Z,99.10
2023-01-29T06:52:40.750Z,99.00
2023-01-29T06:55:08.263Z,99.10
2023-01-29T06:57:35.583Z,98.90
2023-01-29T07:00:06.374Z,99.00
2023-01-29T07:02:33.485Z,98.90
2023-01-29T07:05:00.505Z,99.00
2023-01-29T07:07:30.401Z,99.10
2023-01-29T07:09:57.433Z,99.00
2023-01-29T07:12:24.436Z,99.40
2023-01-29T07:14:51.431Z,98.90
2023-01-29T07:17:18.582Z,98.90
2023-01-29T07:19:45.602Z,98.80
2023-01-29T07:22:12.662Z,98.80
2023-01-29T07:24:39.671Z,98.80
2023-01-29T07:27:06.657Z,98.80
2023-01-29T07:29:33.687Z,99.00
2023-01-29T07:32:00.844Z,98.70
2023-01-29T07:34:30.446Z,98.70
2023-01-29T07:36:57.479Z,99.00
2023-01-29T07:39:24.517Z,98.70
2023-01-29T07:41:51.637Z,98.80
2023-01-29T07:44:18.658Z,98.70
2023-01-29T07:46:45.759Z,98.90
2023-01-29T07:49:12.845Z,98.80
2023-01-29T07:51:39.876Z,98.90
2023-01-29T07:54:06.896Z,98.70
2023-01-29T07:56:34.013Z,98.80
2023-01-29T07:59:01.282Z,98.70
2023-01-29T08:01:28.322Z,98.80
2023-01-29T08:03:55.357Z,98.50
2023-01-29T08:06:22.368Z,98.60
2023-01-29T08:08:49.475Z,98.60
2023-01-29T08:11:16.597Z,98.50
2023-01-29T08:13:43.824Z,98.70
2023-01-29T08:16:10.862Z,98.60
2023-01-29T08:18:38.632Z,98.90
2023-01-29T08:21:05.875Z,98.70
2023-01-29T08:23:32.903Z,98.70
2023-01-29T08:26:00.083Z,98.60
2023-01-29T08:28:27.347Z,98.80
2023-01-29T08:30:54.929Z,98.80
2023-01-29T08:33:29.726Z,98.80
2023-01-29T08:36:00.567Z,98.90
2023-01-29T08:38:28.020Z,99.00
2023-01-29T08:40:55.092Z,99.00
2023-01-29T08:43:22.131Z,99.20
2023-01-29T08:45:49.249Z,99.20
2023-01-29T08:48:16.348Z,98.90
2023-01-29T08:50:43.427Z,99.00
2023-01-29T08:53:10.508Z,99.40
2023-01-29T08:55:39.477Z,98.80
2023-01-29T08:58:08.832Z,99.00
2023-01-29T09:00:39.127Z,98.80
2023-01-29T09:03:07.920Z,98.90
2023-01-29T09:05:40.048Z,99.20
2023-01-29T09:08:08.512Z,98.90
2023-01-29T09:10:36.156Z,99.00
2023-01-29T09:13:03.662Z,98.80
2023-01-29T09:15:30.996Z,99.00
2023-01-29T09:17:58.048Z,99.00
2023-01-29T09:20:30.033Z,98.80
2023-01-29T09:22:59.181Z,98.80
2023-01-29T09:25:26.267Z,99.00
2023-01-29T09:27:54.738Z,98.90
2023-01-29T09:30:22.063Z,99.00
2023-01-29T09:32:53.672Z,99.10
2023-01-29T09:35:22.896Z,99.30
2023-01-29T09:37:51.242Z,99.70
2023-01-29T09:40:51.829Z,99.70
2023-01-29T09:43:27.388Z,99.90
2023-01-29T09:46:21.190Z,99.70
2023-01-29T09:48:53.027Z,99.50
2023-01-29T09:51:34.311Z,99.50
2023-01-29T09:54:09.456Z,99.70
2023-01-29T09:56:36.635Z,99.70
2023-01-29T09:59:03.709Z,99.60
2023-01-29T10:01:42.299Z,99.30
2023-01-29T10:04:18.729Z,99.40
2023-01-29T10:06:51.847Z,99.50
2023-01-29T10:09:58.725Z,99.60
2023-01-29T10:13:06.576Z,99.50
2023-01-29T10:15:53.398Z,99.50
2023-01-29T10:18:29.683Z,99.90
2023-01-29T10:21:05.685Z,99.80
2023-01-29T10:23:34.939Z,99.90
2023-01-29T10:26:02.518Z,99.90
2023-01-29T10:28:43.494Z,99.90
2023-01-29T10:31:38.662Z,99.90
2023-01-29T10:34:31.273Z,99.90
2023-01-29T10:37:09.681Z,99.90
2023-01-29T10:39:38.347Z,99.90
2023-01-29T10:42:26.496Z,99.90
2023-01-29T10:45:24.379Z,99.90
2023-01-29T10:48:19.015Z,99.90
2023-01-29T10:50:53.120Z,99.90
2023-01-29T10:53:32.367Z,99.90
2023-01-29T10:56:33.412Z,99.90
2023-01-29T10:59:08.348Z,99.90
2023-01-29T11:01:35.406Z,99.90
2023-01-29T11:04:04.838Z,99.90
2023-01-29T11:06:36.082Z,99.90
2023-01-29T11:09:13.022Z,99.90
2023-01-29T11:11:54.505Z,99.90
2023-01-29T11:14:31.752Z,99.90
2023-01-29T11:16:59.540Z,99.90
2023-01-29T11:19:41.735Z,99.90
2023-01-29T11:22:23.086Z,99.90
2023-01-29T11:25:10.121Z,99.90
2023-01-29T11:28:08.895Z,99.90
2023-01-29T11:30:40.173Z,99.90
2023-01-29T11:33:18.474Z,99.90
2023-01-29T11:35:46.055Z,99.90
2023-01-29T11:38:23.862Z,99.90
2023-01-29T11:40:51.497Z,99.90
2023-01-29T11:43:23.310Z,99.90
2023-01-29T11:45:54.421Z,99.90
2023-01-29T11:48:34.001Z,99.90
2023-01-29T11:51:02.871Z,99.90
2023-01-29T11:53:49.057Z,99.90
2023-01-29T11:56:41.324Z,99.90
2023-01-29T11:59:25.649Z,99.90
2023-01-29T12:01:52.788Z,99.90
2023-01-29T12:04:26.125Z,99.90
2023-01-29T12:06:54.463Z,99.90
2023-01-29T12:09:24.451Z,99.90
2023-01-29T12:11:52.755Z,99.90
2023-01-29T12:14:30.266Z,99.90
2023-01-29T12:17:01.289Z,99.90
2023-01-29T12:19:59.175Z,99.90
2023-01-29T12:22:44.796Z,99.90
2023-01-29T12:25:44.907Z,99.90
2023-01-29T12:28:26.565Z,99.90
2023-01-29T12:31:00.170Z,99.90
2023-01-29T12:33:54.732Z,99.90
2023-01-29T12:36:53.271Z,99.90
2023-01-29T12:39:21.625Z,99.90
2023-01-29T12:41:57.803Z,99.90
2023-01-29T12:44:33.709Z,99.90
2023-01-29T12:47:03.265Z,99.90
2023-01-29T12:49:34.168Z,99.90
2023-01-29T12:52:16.109Z,99.90
2023-01-29T12:54:52.688Z,99.90
2023-01-29T12:57:54.140Z,99.90
2023-01-29T13:00:24.588Z,99.90
2023-01-29T13:02:54.409Z,99.90
2023-01-29T13:05:38.235Z,99.90
2023-01-29T13:08:14.588Z,99.90
2023-01-29T13:10:45.210Z,99.90
2023-01-29T13:13:33.174Z,99.90
2023-01-29T13:16:01.575Z,99.90
2023-01-29T13:19:00.919Z,99.90
2023-01-29T13:21:35.259Z,99.90
2023-01-29T13:24:13.937Z,99.90
2023-01-29T13:26:44.887Z,99.90
2023-01-29T13:29:38.480Z,99.90
2023-01-29T13:32:05.920Z,99.90
2023-01-29T13:34:44.517Z,99.90
2023-01-29T13:37:18.491Z,99.90
2023-01-29T13:39:52.263Z,99.90
2023-01-29T13:42:38.078Z,99.90
2023-01-29T13:45:08.115Z,99.90
2023-01-29T13:47:38.008Z,99.90
2023-01-29T13:50:18.907Z,99.90
2023-01-29T13:52:57.809Z,99.90
2023-01-29T13:55:37.311Z,99.90
2023-01-29T13:58:17.656Z,99.90
2023-01-29T14:00:44.674Z,99.90
2023-01-29T14:03:11.869Z,99.90
2023-01-29T14:05:43.881Z,99.90
2023-01-29T14:08:13.885Z,99.90
2023-01-29T14:10:43.055Z,99.90
2023-01-29T14:13:19.197Z,99.90
2023-01-29T14:16:12.821Z,99.90
2023-01-29T14:18:52.082Z,99.90
2023-01-29T14:21:25.309Z,99.90
2023-01-29T14:24:08.648Z,99.90
2023-01-29T14:26:39.218Z,99.90
2023-01-29T14:29:14.501Z,99.90
2023-01-29T14:31:59.569Z,99.90
2023-01-29T14:34:30.087Z,99.90
2023-01-29T14:37:19.320Z,99.90
2023-01-29T15:11:20.836Z,99.90
2023-01-29T15:14:00.746Z,99.90
2023-01-29T15:16:35.605Z,99.90
2023-01-29T15:19:23.158Z,99.90
2023-01-29T15:22:25.995Z,99.90
2023-01-29T15:25:10.601Z,99.90
2023-01-29T15:27:43.094Z,99.90
2023-01-29T15:30:16.817Z,99.90
2023-01-29T15:32:47.481Z,99.90
2023-01-29T15:35:39.094Z,99.90
2023-01-29T15:38:27.242Z,99.90
2023-01-29T15:41:16.442Z,99.90
2023-01-29T15:43:46.483Z,99.90
2023-01-29T15:46:27.373Z,99.90
2023-01-29T15:49:00.018Z,99.90
2023-01-29T15:51:28.354Z,99.90
2023-01-29T15:54:02.465Z,99.90
2023-01-29T15:56:43.611Z,99.90
2023-01-29T15:59:18.708Z,99.90
2023-01-29T16:01:46.076Z,99.90
2023-01-29T16:04:33.363Z,99.90
2023-01-29T16:07:01.920Z,99.90
2023-01-29T16:09:29.578Z,99.90
2023-01-29T16:11:59.430Z,99.90
2023-01-29T16:14:28.010Z,99.90
2023-01-29T16:16:55.269Z,99.90
2023-01-29T16:19:28.006Z,99.90
2023-01-29T16:22:03.383Z,99.90
2023-01-29T16:24:32.657Z,99.90
2023-01-29T16:27:03.523Z,99.90
2023-01-29T16:29:35.640Z,99.90
2023-01-29T16:32:03.807Z,99.90
2023-01-29T16:34:40.039Z,99.90
2023-01-29T16:37:20.878Z,99.90
2023-01-29T16:39:50.308Z,99.90
2023-01-29T16:42:17.613Z,99.90
2023-01-29T16:44:55.239Z,99.90
2023-01-29T16:47:37.079Z,99.90
2023-01-29T16:50:43.419Z,99.90
2023-01-29T16:53:21.948Z,99.90
2023-01-29T16:55:51.378Z,99.90
2023-01-29T16:58:28.334Z,99.90
2023-01-29T17:01:08.716Z,99.90
2023-01-29T17:03:37.527Z,99.90
2023-01-29T17:06:21.466Z,99.90
2023-01-29T17:08:51.840Z,99.90
2023-01-29T17:11:33.447Z,99.90
2023-01-29T17:14:00.926Z,99.90
2023-01-29T17:16:33.187Z,99.90
2023-01-29T17:19:00.795Z,99.90
2023-01-29T17:21:30.484Z,99.90
2023-01-29T17:23:57.515Z,99.90
2023-01-29T17:26:24.983Z,99.90
2023-01-29T17:28:53.841Z,99.90
2023-01-29T17:31:21.339Z,99.90
2023-01-29T17:33:48.872Z,99.90
2023-01-29T17:36:17.581Z,99.90
2023-01-29T17:38:46.014Z,99.90
2023-01-29T17:41:23.805Z,99.90
2023-01-29T17:43:51.170Z,99.90
2023-01-29T17:46:19.636Z,99.90
2023-01-29T17:48:50.248Z,99.90
2023-01-29T17:51:18.728Z,99.90
2023-01-29T17:53:47.346Z,99.90
2023-01-29T17:56:27.771Z,99.90
2023-01-29T17:58:55.435Z,99.90
2023-01-29T18:01:22.965Z,99.90
2023-01-29T18:03:50.221Z,99.90
2023-01-29T18:06:29.947Z,99.90
2023-01-29T18:08:57.420Z,99.90
2023-01-29T18:11:24.926Z,99.90
2023-01-29T18:14:01.420Z,99.90
2023-01-29T18:16:40.963Z,99.90
2023-01-29T18:19:22.172Z,99.90
2023-01-29T18:21:50.275Z,99.90
2023-01-29T18:24:17.862Z,99.90
2023-01-29T18:26:45.382Z,99.90
2023-01-29T18:29:12.555Z,99.90
2023-01-29T18:31:39.846Z,99.90
2023-01-29T18:34:07.154Z,99.90
2023-01-29T18:36:34.192Z,99.90
2023-01-29T18:39:01.275Z,99.90
2023-01-29T18:41:28.275Z,99.90
2023-01-29T18:43:55.407Z,99.90
2023-01-29T18:46:24.353Z,99.90
2023-01-29T18:48:51.631Z,99.90
2023-01-29T18:51:18.711Z,99.90
2023-01-29T18:53:50.855Z,99.90
2023-01-29T18:56:18.737Z,99.90
2023-01-29T18:58:51.964Z,99.90
2023-01-29T19:01:19.501Z,99.90
2023-01-29T19:03:49.610Z,99.90
2023-01-29T19:06:16.718Z,99.90
2023-01-29T19:08:47.457Z,99.90
2023-01-29T19:11:14.638Z,99.90
2023-01-29T19:13:42.918Z,99.90
2023-01-29T19:16:11.023Z,99.90
2023-01-29T19:18:38.936Z,99.90
2023-01-29T19:21:11.300Z,99.90
2023-01-29T19:23:38.557Z,99.90
2023-01-29T19:26:06.411Z,99.90
2023-01-29T19:28:33.832Z,99.90
2023-01-29T19:31:01.563Z,99.90
2023-01-29T19:33:28.870Z,99.90
2023-01-29T19:35:57.585Z,99.90
2023-01-29T19:38:25.304Z,99.90
2023-01-29T19:40:52.743Z,99.90
2023-01-29T19:43:20.053Z,99.90
2023-01-29T19:45:53.667Z,99.90
2023-01-29T19:48:23.818Z,99.90
2023-01-29T19:50:53.671Z,99.90
2023-01-29T19:53:21.662Z,99.90
2023-01-29T19:55:56.518Z,99.90
2023-01-29T19:58:26.786Z,99.90
2023-01-29T20:00:56.424Z,99.90
2023-01-29T20:03:23.546Z,99.90
2023-01-29T20:05:50.678Z,99.90
2023-01-29T20:08:18.570Z,99.90
2023-01-29T20:10:50.083Z,99.90
2023-01-29T20:13:17.515Z,99.90
2023-01-29T20:15:49.549Z,99.90
2023-01-29T20:18:17.714Z,99.90
2023-01-29T20:20:50.563Z,99.90
2023-01-29T20:23:35.219Z,99.90
2023-01-29T20:26:04.116Z,99.90
2023-01-29T20:28:31.174Z,99.90
2023-01-29T20:30:59.140Z,99.90
2023-01-29T20:33:26.635Z,99.90
2023-01-29T20:36:05.339Z,99.90
2023-01-29T20:38:33.911Z,99.90
2023-01-29T20:41:27.003Z,99.90
2023-01-29T20:43:54.404Z,99.90
2023-01-29T20:46:21.573Z,99.90
2023-01-29T20:48:53.119Z,99.90
2023-01-29T20:51:20.561Z,99.90
2023-01-29T20:53:48.237Z,99.90
2023-01-29T20:56:16.619Z,99.90
2023-01-29T20:58:47.116Z,99.90
2023-01-29T21:01:17.023Z,99.90
2023-01-29T21:03:44.744Z,99.90
2023-01-29T21:06:12.233Z,99.90
2023-01-29T21:08:39.905Z,99.90
2023-01-29T21:11:08.426Z,99.90
2023-01-29T21:13:35.711Z,99.90
2023-01-29T21:16:02.849Z,99.90
2023-01-29T21:18:29.976Z,99.90
2023-01-29T21:20:57.042Z,99.90
2023-01-29T21:23:24.049Z,99.90
2023-01-29T21:25:51.075Z,99.90
2023-01-29T21:28:18.100Z,99.90
2023-01-29T21:30:45.387Z,99.90
2023-01-29T21:33:12.482Z,99.90
2023-01-29T21:35:39.506Z,99.90
2023-01-29T21:38:06.505Z,99.90
2023-01-29T21:40:33.544Z,99.90
2023-01-29T21:43:12.798Z,99.90
2023-01-29T21:45:40.976Z,99.90
2023-01-29T21:48:09.644Z,99.90
2023-01-29T21:50:36.803Z,99.90
2023-01-29T21:53:03.953Z,99.90
2023-01-29T21:55:31.023Z,99.90
2023-01-29T21:58:00.783Z,99.90
2023-01-29T22:00:28.143Z,99.90
2023-01-29T22:02:56.039Z,99.90
2023-01-29T22:05:23.278Z,99.90
2023-01-29T22:07:50.747Z,99.90
2023-01-29T22:10:19.508Z,99.90
2023-01-29T22:12:47.918Z,99.90
2023-01-29T22:15:15.868Z,99.90
2023-01-29T22:17:43.099Z,99.90
2023-01-29T22:20:14.066Z,99.90
2023-01-29T22:22:41.514Z,99.90
2023-01-29T22:25:09.541Z,99.90
2023-01-29T22:27:36.863Z,99.90
2023-01-29T22:30:05.321Z,99.90
2023-01-29T22:32:32.801Z,99.90
2023-01-29T22:35:00.018Z,99.90
2023-01-29T22:37:27.184Z,99.90
2023-01-29T22:39:54.496Z,99.90
2023-01-29T22:42:21.659Z,99.90
2023-01-29T22:44:48.834Z,99.90
2023-01-29T22:47:16.178Z,99.90
2023-01-29T22:49:45.637Z,99.90
2023-01-29T22:52:12.861Z,99.90
2023-01-29T22:54:41.434Z,99.90
2023-01-29T22:57:13.628Z,99.90
2023-01-29T22:59:41.332Z,99.90
2023-01-29T23:02:09.434Z,99.90
2023-01-29T23:04:39.983Z,99.90
2023-01-29T23:07:10.090Z,99.90
2023-01-29T23:09:37.225Z,99.90
2023-01-29T23:12:04.805Z,99.90
2023-01-29T23:14:32.037Z,99.90
2023-01-29T23:16:59.172Z,99.90
2023-01-29T23:19:27.242Z,99.90
2023-01-29T23:21:54.475Z,99.90
2023-01-29T23:24:21.662Z,99.90
2023-01-29T23:27:07.185Z,99.90
2023-01-29T23:29:37.506Z,99.90
2023-01-29T23:32:04.846Z,99.90
2023-01-29T23:34:32.011Z,99.90
2023-01-29T23:36:59.380Z,99.90
2023-01-29T23:39:26.540Z,99.90
2023-01-29T23:41:53.660Z,99.90
2023-01-29T23:44:20.910Z,99.90
2023-01-29T23:46:48.253Z,99.90
2023-01-29T23:49:15.463Z,99.90
2023-01-29T23:51:42.656Z,99.90
2023-01-29T23:54:09.863Z,99.90
2023-01-29T23:56:37.149Z,99.90
2023-01-29T23:59:04.336Z,99.90
